createdAt,value
2018-11-22T00:02:05.988Z,7.10
2018-11-22T00:04:33.663Z,6.00
2018-11-22T00:07:01.942Z,6.50
2018-11-22T00:09:30.494Z,6.60
2018-11-22T00:11:58.098Z,6.60
2018-11-22T00:14:25.709Z,6.80
2018-11-22T00:16:53.747Z,6.50
2018-11-22T00:19:21.984Z,6.50
2018-11-22T00:21:53.188Z,6.90
2018-11-22T00:24:20.887Z,6.00
2018-11-22T00:26:48.473Z,6.30
2018-11-22T00:29:16.320Z,6.50
2018-11-22T00:31:43.831Z,6.90
2018-11-22T00:34:11.521Z,6.40
2018-11-22T00:36:40.898Z,5.40
2018-11-22T00:39:10.745Z,5.90
2018-11-22T00:41:43.841Z,5.70
2018-11-22T00:44:11.926Z,6.10
2018-11-22T00:46:39.579Z,5.80
2018-11-22T00:49:07.230Z,5.60
2018-11-22T00:51:34.857Z,6.00
2018-11-22T00:54:05.171Z,6.00
2018-11-22T00:56:32.793Z,6.50
2018-11-22T00:59:00.436Z,5.70
2018-11-22T01:01:28.141Z,5.80
2018-11-22T01:03:55.894Z,5.80
2018-11-22T01:06:23.800Z,5.80
2018-11-22T01:08:51.403Z,6.10
2018-11-22T01:11:19.012Z,5.80
2018-11-22T01:13:46.551Z,6.20
2018-11-22T01:16:14.438Z,5.70
2018-11-22T01:18:46.294Z,5.70
2018-11-22T01:21:14.334Z,6.20
2018-11-22T01:23:41.894Z,6.30
2018-11-22T01:26:09.525Z,6.30
2018-11-22T01:28:37.418Z,6.40
2018-11-22T01:31:06.222Z,6.60
2018-11-22T01:33:33.829Z,6.60
2018-11-22T01:36:03.064Z,6.70
2018-11-22T01:38:31.453Z,6.40
2018-11-22T01:40:59.076Z,6.60
2018-11-22T01:43:26.678Z,6.90
2018-11-22T01:45:55.079Z,6.40
2018-11-22T01:48:22.754Z,6.40
2018-11-22T01:50:50.358Z,6.20
2018-11-22T01:53:17.968Z,6.60
2018-11-22T01:55:45.582Z,6.80
2018-11-22T01:58:13.141Z,7.10
2018-11-22T02:00:40.784Z,6.60
2018-11-22T02:03:08.374Z,6.90
2018-11-22T02:05:35.952Z,6.40
2018-11-22T02:08:03.607Z,6.60
2018-11-22T02:10:31.156Z,5.90
2018-11-22T02:12:59.209Z,6.20
2018-11-22T02:15:27.993Z,6.40
2018-11-22T02:17:55.625Z,5.90
2018-11-22T02:20:24.129Z,6.00
2018-11-22T02:22:52.835Z,6.10
2018-11-22T02:25:22.474Z,6.10
2018-11-22T02:27:50.119Z,6.30
2018-11-22T02:30:19.785Z,5.90
2018-11-22T02:32:48.767Z,5.60
2018-11-22T02:35:17.058Z,6.20
2018-11-22T02:37:44.712Z,6.00
2018-11-22T02:40:13.788Z,6.10
2018-11-22T02:42:42.530Z,5.90
2018-11-22T02:45:11.932Z,6.50
2018-11-22T02:47:39.925Z,5.90
2018-11-22T02:50:10.250Z,6.80
2018-11-22T02:52:38.088Z,6.00
2018-11-22T02:55:06.060Z,6.40
2018-11-22T02:57:33.631Z,6.20
2018-11-22T03:00:01.180Z,6.30
2018-11-22T03:02:28.854Z,6.10
2018-11-22T03:04:56.436Z,6.10
2018-11-22T03:07:24.030Z,5.90
2018-11-22T03:09:51.635Z,6.30
2018-11-22T03:12:19.236Z,6.70
2018-11-22T03:14:46.840Z,6.30
2018-11-22T03:17:14.405Z,6.20
2018-11-22T03:19:41.960Z,5.80
2018-11-22T03:22:09.522Z,5.70
2018-11-22T03:24:37.116Z,5.90
2018-11-22T03:27:04.813Z,6.00
2018-11-22T03:29:32.360Z,6.30
2018-11-22T03:31:59.987Z,6.30
2018-11-22T03:34:27.598Z,6.10
2018-11-22T03:36:55.554Z,5.90
2018-11-22T03:39:23.230Z,6.30
2018-11-22T03:41:50.806Z,6.20
2018-11-22T03:44:18.351Z,6.40
2018-11-22T03:46:45.968Z,6.80
2018-11-22T03:49:13.479Z,7.00
2018-11-22T03:51:41.057Z,7.20
2018-11-22T03:54:08.649Z,7.10
2018-11-22T03:56:36.223Z,7.00
2018-11-22T03:59:03.839Z,6.50
2018-11-22T04:01:31.417Z,6.50
2018-11-22T04:03:58.987Z,6.60
2018-11-22T04:06:26.570Z,6.60
2018-11-22T04:08:54.180Z,6.60
2018-11-22T04:11:21.804Z,6.70
2018-11-22T04:13:49.348Z,6.40
2018-11-22T04:16:16.933Z,6.40
2018-11-22T04:18:44.555Z,6.30
2018-11-22T04:21:12.125Z,6.20
2018-11-22T04:23:39.725Z,6.40
2018-11-22T04:26:07.308Z,6.50
2018-11-22T04:28:34.943Z,6.60
2018-11-22T04:31:02.563Z,6.70
2018-11-22T04:33:30.239Z,6.40
2018-11-22T04:35:57.846Z,6.40
2018-11-22T04:38:25.462Z,6.20
2018-11-22T04:40:53.090Z,6.10
2018-11-22T04:43:20.761Z,6.10
2018-11-22T04:45:48.268Z,6.50
2018-11-22T04:48:15.850Z,6.20
2018-11-22T04:50:43.421Z,6.20
2018-11-22T04:53:11.013Z,6.20
2018-11-22T04:55:38.625Z,6.30
2018-11-22T04:58:06.232Z,6.50
2018-11-22T05:00:33.809Z,6.10
2018-11-22T05:03:01.450Z,6.00
2018-11-22T05:05:28.967Z,6.30
2018-11-22T05:07:56.617Z,6.20
2018-11-22T05:10:25.660Z,5.80
2018-11-22T05:12:53.860Z,5.70
2018-11-22T05:15:23.055Z,5.80
2018-11-22T05:17:50.646Z,5.90
2018-11-22T05:20:19.387Z,6.10
2018-11-22T05:22:47.513Z,5.70
2018-11-22T05:25:15.255Z,6.00
2018-11-22T05:27:42.881Z,5.70
2018-11-22T05:30:15.236Z,5.60
2018-11-22T05:32:42.833Z,6.00
2018-11-22T05:35:11.420Z,6.50
2018-11-22T05:37:39.008Z,6.20
2018-11-22T05:40:22.836Z,6.60
2018-11-22T05:42:50.395Z,6.50
2018-11-22T05:45:22.216Z,6.20
2018-11-22T05:47:49.849Z,6.10
2018-11-22T05:50:19.268Z,6.10
2018-11-22T05:52:47.278Z,6.10
2018-11-22T05:55:15.198Z,6.40
2018-11-22T05:57:42.856Z,5.90
2018-11-22T06:00:13.450Z,6.00
2018-11-22T06:02:41.108Z,6.00
2018-11-22T06:05:09.507Z,6.00
2018-11-22T06:07:37.102Z,5.80
2018-11-22T06:10:08.528Z,6.00
2018-11-22T06:12:36.148Z,6.60
2018-11-22T06:15:04.360Z,6.30
2018-11-22T06:17:32.004Z,6.70
2018-11-22T06:19:59.662Z,6.40
2018-11-22T06:22:27.663Z,6.10
2018-11-22T06:24:55.555Z,6.20
2018-11-22T06:27:23.216Z,6.20
2018-11-22T06:29:50.853Z,6.10
2018-11-22T06:32:18.564Z,6.00
2018-11-22T06:34:46.160Z,5.70
2018-11-22T06:37:13.774Z,5.70
2018-11-22T06:39:41.392Z,5.70
2018-11-22T06:42:08.998Z,6.00
2018-11-22T06:44:36.834Z,6.00
2018-11-22T06:47:04.601Z,5.70
2018-11-22T06:49:32.274Z,6.10
2018-11-22T06:51:59.926Z,6.10
2018-11-22T06:54:27.709Z,6.00
2018-11-22T06:56:55.353Z,6.60
2018-11-22T06:59:23.118Z,6.90
2018-11-22T07:01:50.802Z,7.00
2018-11-22T07:04:18.474Z,6.70
2018-11-22T07:06:46.094Z,6.10
2018-11-22T07:09:13.853Z,6.30
2018-11-22T07:11:41.864Z,5.50
2018-11-22T07:14:09.131Z,5.90
2018-11-22T07:16:36.753Z,5.80
2018-11-22T07:19:05.075Z,6.10
2018-11-22T07:21:32.724Z,5.90
2018-11-22T07:24:00.384Z,6.10
2018-11-22T07:26:28.236Z,6.50
2018-11-22T07:28:55.850Z,6.70
2018-11-22T07:31:23.474Z,6.70
2018-11-22T07:33:51.106Z,6.90
2018-11-22T07:36:18.810Z,7.00
2018-11-22T07:38:46.412Z,7.00
2018-11-22T07:41:13.973Z,7.00
2018-11-22T07:43:41.584Z,7.30
2018-11-22T07:46:09.165Z,7.10
2018-11-22T07:48:36.832Z,6.80
2018-11-22T07:51:04.823Z,7.10
2018-11-22T07:53:32.509Z,7.20
2018-11-22T07:56:00.287Z,7.30
2018-11-22T07:58:27.935Z,7.30
2018-11-22T08:00:55.577Z,7.30
2018-11-22T08:03:23.171Z,7.00
2018-11-22T08:05:50.977Z,7.10
2018-11-22T08:08:18.799Z,7.40
2018-11-22T08:10:46.494Z,7.40
2018-11-22T08:13:14.241Z,7.40
2018-11-22T08:15:41.923Z,7.60
2018-11-22T08:18:09.576Z,7.50
2018-11-22T08:20:37.301Z,7.10
2018-11-22T08:23:05.869Z,7.30
2018-11-22T08:25:33.951Z,7.50
2018-11-22T08:28:01.777Z,7.20
2018-11-22T08:30:29.654Z,7.20
2018-11-22T08:32:57.295Z,7.30
2018-11-22T08:35:24.907Z,7.50
2018-11-22T08:37:52.482Z,7.50
2018-11-22T08:40:21.515Z,7.70
2018-11-22T08:42:55.149Z,7.80
2018-11-22T08:45:18.986Z,7.30
2018-11-22T08:47:46.870Z,7.30
2018-11-22T08:50:16.396Z,7.40
2018-11-22T08:52:45.343Z,7.50
2018-11-22T12:16:23.445Z,7.70
2018-11-22T12:18:51.674Z,7.30
2018-11-22T12:21:19.823Z,7.30
2018-11-22T12:23:48.525Z,6.80
2018-11-22T12:26:16.245Z,6.80
2018-11-22T12:28:44.391Z,7.10
2018-11-22T12:31:12.648Z,8.00
2018-11-22T12:33:40.881Z,8.50
2018-11-22T12:36:14.697Z,7.90
2018-11-22T12:38:43.491Z,7.10
2018-11-22T12:41:11.740Z,7.30
2018-11-22T12:43:39.955Z,6.80
2018-11-22T12:46:08.201Z,6.60
2018-11-22T12:48:36.299Z,6.50
2018-11-22T12:51:04.553Z,6.30
2018-11-22T12:53:32.834Z,7.20
2018-11-22T12:56:01.071Z,7.50
2018-11-22T12:58:29.273Z,8.30
2018-11-22T13:00:58.446Z,8.50
2018-11-22T13:03:26.745Z,8.10
2018-11-22T13:05:55.208Z,9.20
2018-11-22T13:08:23.505Z,9.10
2018-11-22T13:10:51.647Z,9.10
2018-11-22T13:13:19.905Z,8.70
2018-11-22T13:15:48.007Z,8.20
2018-11-22T13:18:16.225Z,7.10
2018-11-22T13:20:44.334Z,7.10
2018-11-22T13:23:12.585Z,7.30
2018-11-22T13:25:40.804Z,7.20
2018-11-22T13:28:09.012Z,6.90
2018-11-22T13:30:37.169Z,7.50
2018-11-22T13:33:05.554Z,7.90
2018-11-22T13:35:33.800Z,8.20
2018-11-22T13:38:01.969Z,7.00
2018-11-22T13:40:30.144Z,7.80
2018-11-22T13:42:58.298Z,8.60
2018-11-22T13:45:27.682Z,8.30
2018-11-22T13:47:56.353Z,8.90
2018-11-22T13:50:30.572Z,8.40
2018-11-22T13:53:00.336Z,8.70
2018-11-22T13:55:28.674Z,8.40
2018-11-22T13:57:56.990Z,7.30
2018-11-22T14:00:26.642Z,7.10
2018-11-22T14:02:56.529Z,7.30
2018-11-22T14:05:24.737Z,7.40
2018-11-22T14:07:52.942Z,6.80
2018-11-22T14:10:21.483Z,7.60
2018-11-22T14:12:49.922Z,7.60
2018-11-22T14:15:19.391Z,6.80
2018-11-22T14:17:48.610Z,6.50
2018-11-22T14:20:20.949Z,6.40
2018-11-22T14:22:49.875Z,6.10
2018-11-22T14:25:18.096Z,6.60
2018-11-22T14:27:47.598Z,6.70
2018-11-22T14:30:16.987Z,6.40
2018-11-22T14:32:45.735Z,6.10
2018-11-22T14:35:15.269Z,6.10
2018-11-22T14:37:44.082Z,6.70
2018-11-22T14:40:29.349Z,6.30
2018-11-22T14:42:57.780Z,6.10
2018-11-22T14:45:26.606Z,6.40
2018-11-22T14:47:56.036Z,6.70
2018-11-22T14:50:30.674Z,6.30
2018-11-22T14:53:30.463Z,6.10
2018-11-22T14:55:59.322Z,6.10
2018-11-22T14:58:27.522Z,6.10
2018-11-22T15:00:55.823Z,6.30
2018-11-22T15:03:24.075Z,6.00
2018-11-22T15:05:52.309Z,6.30
2018-11-22T15:08:20.516Z,5.90
2018-11-22T15:10:48.689Z,6.10
2018-11-22T15:13:16.889Z,6.50
2018-11-22T15:15:45.086Z,5.80
2018-11-22T15:18:13.266Z,6.30
2018-11-22T15:20:41.746Z,6.40
2018-11-22T15:23:09.878Z,6.40
2018-11-22T15:25:38.031Z,6.20
2018-11-22T15:28:06.229Z,6.60
2018-11-22T15:30:34.887Z,7.00
2018-11-22T15:33:03.138Z,7.00
2018-11-22T15:35:31.468Z,6.60
2018-11-22T15:37:59.800Z,6.70
2018-11-22T15:40:28.218Z,6.40
2018-11-22T15:42:58.503Z,6.20
2018-11-22T15:45:34.751Z,5.90
2018-11-22T15:47:56.291Z,6.00
2018-11-22T15:50:26.083Z,6.10
2018-11-22T15:52:54.503Z,6.20
2018-11-22T15:55:23.927Z,6.30
2018-11-22T15:57:54.678Z,6.10
2018-11-22T16:00:24.479Z,6.10
2018-11-22T16:02:53.475Z,5.70
2018-11-22T16:05:22.988Z,5.70
2018-11-22T16:07:51.171Z,5.50
2018-11-22T16:10:26.300Z,5.20
2018-11-22T16:12:52.757Z,5.50
2018-11-22T16:15:33.390Z,5.40
2018-11-22T16:18:01.764Z,5.50
2018-11-22T16:20:29.934Z,5.20
2018-11-22T16:22:58.155Z,5.40
2018-11-22T16:25:26.323Z,5.60
2018-11-22T16:27:54.552Z,5.00
2018-11-22T16:30:24.129Z,5.40
2018-11-22T16:32:52.588Z,5.10
2018-11-22T16:35:21.519Z,5.40
2018-11-22T16:37:49.885Z,5.30
2018-11-22T16:40:21.089Z,4.90
2018-11-22T16:42:51.207Z,4.80
2018-11-22T16:45:25.815Z,5.00
2018-11-22T16:47:55.471Z,4.90
2018-11-22T16:50:25.680Z,5.10
2018-11-22T16:52:54.136Z,5.10
2018-11-22T16:55:22.889Z,5.20
2018-11-22T16:57:52.202Z,5.20
2018-11-22T17:00:28.424Z,5.20
2018-11-22T17:02:58.278Z,5.10
2018-11-22T17:05:26.961Z,4.90
2018-11-22T17:07:55.408Z,5.10
2018-11-22T17:10:24.911Z,5.10
2018-11-22T17:12:54.433Z,4.30
2018-11-22T17:15:24.767Z,4.30
2018-11-22T17:17:53.357Z,4.20
2018-11-22T17:20:22.458Z,4.50
2018-11-22T17:22:51.342Z,4.30
2018-11-22T17:25:22.797Z,4.20
2018-11-22T17:27:52.637Z,4.40
2018-11-22T17:30:22.515Z,4.50
2018-11-22T17:32:50.923Z,4.40
2018-11-22T17:35:21.805Z,4.70
2018-11-22T17:37:50.595Z,5.00
2018-11-22T17:40:21.082Z,4.40
2018-11-22T17:42:49.424Z,4.50
2018-11-22T17:45:22.970Z,4.50
2018-11-22T17:47:51.491Z,4.10
2018-11-22T17:50:20.981Z,4.50
2018-11-22T17:52:49.426Z,4.20
2018-11-22T17:55:19.268Z,4.10
2018-11-22T17:57:48.131Z,4.00
2018-11-22T18:00:25.801Z,3.90
2018-11-22T18:02:55.278Z,3.90
2018-11-22T18:05:27.131Z,3.60
2018-11-22T18:07:51.938Z,3.50
2018-11-22T18:10:21.803Z,3.60
2018-11-22T18:12:50.774Z,3.50
2018-11-22T18:15:20.077Z,3.50
2018-11-22T18:17:48.682Z,3.80
2018-11-22T18:20:22.149Z,3.60
2018-11-22T18:22:51.374Z,3.60
2018-11-22T18:25:20.971Z,3.70
2018-11-22T18:27:49.395Z,3.60
2018-11-22T18:30:27.869Z,3.60
2018-11-22T18:32:57.814Z,3.50
2018-11-22T18:35:26.299Z,3.50
2018-11-22T18:37:54.536Z,3.70
2018-11-22T18:40:25.390Z,3.60
2018-11-22T18:42:55.389Z,3.50
2018-11-22T18:45:29.657Z,4.00
2018-11-22T18:47:58.376Z,4.00
2018-11-22T18:50:27.867Z,4.10
2018-11-22T18:52:56.299Z,4.20
2018-11-22T18:55:24.747Z,4.10
2018-11-22T18:57:53.112Z,4.40
2018-11-22T19:00:31.493Z,4.40
2018-11-22T19:03:06.793Z,4.10
2018-11-22T19:05:35.125Z,4.10
2018-11-22T19:08:03.738Z,4.30
2018-11-22T19:10:34.672Z,4.20
2018-11-22T19:13:04.735Z,4.30
2018-11-22T19:15:34.534Z,4.10
2018-11-22T19:18:03.222Z,3.80
2018-11-22T19:20:34.284Z,3.70
2018-11-22T19:23:03.718Z,3.90
2018-11-22T19:25:32.083Z,4.00
2018-11-22T19:28:01.129Z,4.00
2018-11-22T19:30:37.025Z,4.00
2018-11-22T19:33:01.061Z,4.00
2018-11-22T19:35:38.254Z,3.70
2018-11-22T19:38:06.977Z,3.70
2018-11-22T19:40:36.674Z,3.80
2018-11-22T19:43:06.761Z,3.90
2018-11-22T19:45:36.692Z,4.10
2018-11-22T19:48:05.702Z,4.00
2018-11-22T19:50:34.149Z,3.90
2018-11-22T19:53:03.675Z,3.90
2018-11-22T19:55:33.065Z,3.70
2018-11-22T19:58:03.752Z,3.50
2018-11-22T20:00:32.401Z,3.50
2018-11-22T20:03:02.100Z,3.50
2018-11-22T20:05:31.772Z,3.60
2018-11-22T20:08:03.022Z,3.90
2018-11-22T20:10:32.789Z,4.00
2018-11-22T20:13:01.253Z,3.90
2018-11-22T20:15:30.171Z,3.80
2018-11-22T20:17:59.371Z,3.90
2018-11-22T20:20:27.861Z,3.90
2018-11-22T20:22:56.895Z,3.70
2018-11-22T20:25:25.573Z,3.60
2018-11-22T20:27:55.195Z,3.50
2018-11-22T20:30:25.250Z,3.40
2018-11-22T20:32:53.761Z,3.40
2018-11-22T20:35:23.009Z,3.20
2018-11-22T20:37:51.920Z,3.30
2018-11-22T20:40:21.572Z,3.30
2018-11-22T20:42:50.061Z,3.50
2018-11-22T20:45:19.576Z,3.60
2018-11-22T20:47:49.500Z,3.80
2018-11-22T20:50:19.171Z,3.70
2018-11-22T20:52:47.438Z,3.60
2018-11-22T20:55:19.024Z,3.50
2018-11-22T20:57:48.442Z,3.10
2018-11-22T21:00:18.345Z,3.10
2018-11-22T21:02:46.876Z,2.70
2018-11-22T21:05:15.972Z,2.60
2018-11-22T21:07:44.608Z,2.80
2018-11-22T21:10:14.326Z,2.90
2018-11-22T21:12:42.700Z,2.70
2018-11-22T21:15:15.397Z,2.70
2018-11-22T21:17:44.482Z,2.60
2018-11-22T21:20:14.359Z,2.60
2018-11-22T21:22:42.762Z,2.10
2018-11-22T21:25:12.941Z,2.10
2018-11-22T21:27:41.267Z,2.20
2018-11-22T21:30:22.031Z,2.10
2018-11-22T21:32:51.188Z,2.30
2018-11-22T21:35:19.857Z,2.30
2018-11-22T21:37:48.872Z,2.50
2018-11-22T21:40:17.880Z,2.60
2018-11-22T21:42:46.237Z,2.70
2018-11-22T21:45:16.324Z,2.90
2018-11-22T21:47:44.771Z,2.70
2018-11-22T21:50:14.503Z,2.70
2018-11-22T21:52:42.994Z,2.70
2018-11-22T21:55:16.165Z,2.80
2018-11-22T21:57:45.175Z,2.80
2018-11-22T22:00:17.710Z,2.70
2018-11-22T22:02:52.412Z,2.40
2018-11-22T22:05:16.647Z,2.30
2018-11-22T22:07:44.939Z,2.40
2018-11-22T22:10:13.657Z,2.20
2018-11-22T22:12:42.317Z,2.30
2018-11-22T22:15:14.359Z,2.10
2018-11-22T22:17:43.586Z,2.20
2018-11-22T22:20:14.205Z,2.30
2018-11-22T22:22:42.479Z,2.30
2018-11-22T22:25:13.280Z,2.50
2018-11-22T22:27:41.769Z,2.10
2018-11-22T22:30:13.435Z,2.10
2018-11-22T22:32:42.331Z,2.60
2018-11-22T22:35:10.538Z,2.60
2018-11-22T22:37:39.208Z,3.00
2018-11-22T22:40:13.345Z,2.90
2018-11-22T22:42:42.777Z,2.70
2018-11-22T22:45:12.180Z,2.40
2018-11-22T22:47:40.811Z,2.20
2018-11-22T22:50:16.091Z,2.10
2018-11-22T22:52:45.357Z,2.30
2018-11-22T22:55:13.623Z,2.50
2018-11-22T22:57:42.338Z,2.50
2018-11-22T23:00:22.435Z,2.40
2018-11-22T23:02:51.860Z,2.40
2018-11-22T23:05:20.606Z,2.40
2018-11-22T23:07:48.836Z,2.40
2018-11-22T23:10:18.283Z,2.70
2018-11-22T23:12:46.517Z,2.60
2018-11-22T23:15:15.876Z,2.70
2018-11-22T23:17:44.222Z,2.60
2018-11-22T23:20:16.228Z,2.40
2018-11-22T23:22:45.625Z,2.70
2018-11-22T23:25:16.081Z,3.10
2018-11-22T23:27:44.245Z,3.00
2018-11-22T23:30:20.180Z,2.90
2018-11-22T23:32:50.508Z,2.90
2018-11-22T23:35:18.887Z,3.40
2018-11-22T23:37:47.376Z,3.50
2018-11-22T23:40:16.810Z,3.60
2018-11-22T23:42:45.059Z,3.60
2018-11-22T23:45:14.870Z,3.30
2018-11-22T23:47:43.449Z,3.30
2018-11-22T23:50:14.865Z,3.30
2018-11-22T23:52:44.268Z,3.30
2018-11-22T23:55:12.476Z,3.10
2018-11-22T23:57:40.754Z,2.80
